Terminal Aerodrome Forecast
Issued by NWS

Home | Current Version | Previous Version | Text Only | Print | Product List | Glossary On
Versions: 1 2 3 4 5 6 7 8 9 10 11 12 13 14 15 16
465
FTUS43 KJKL 090520
TAFSME
TAF
KSME 090520Z 0906/1006 30006KT P6SM VCSH BKN029 BKN060 OVC080=

USA.gov is the U.S. government's official web portal to all federal, state and local government web resources and services.